Forside
METAR-TAF:

METAR-TAF

Lufthavne :

Grayslake, Illinois, USA

Breddekreds: 42-19-29N, længdekreds: 088-04-27W, højde: 240 m

Aktuelle vejr

Denne rapport blev lavet for 11 minutter siden, kl. 11:15 UTC
Vind stille
Temperatur 23°C
Fugtighed 100%
Tryk 1016 hPa
Sigt: 16.1 km
skyfri

METAR: KMBO 121115Z AUTO 00000KT 10SM CLR 23/23 A2999 RMK AO2 LTG DSNT NW PWINO

Tid: 06:26 (11:26 UTC)


TAF: fraværende

Vejrobservationer og prognoser fra mere end 4000 lufthavne (METAR og TAF).

De gule og røde prikker repræsenterer de meteorologiske stationer.

Flyt musen over at se navnet på stationen.

Så klik over at se vejr observationer og prognoser.

At skifte det kort: Klik på de grønne knapper med et sort kors for at zoome ind; på den grønne knap med en bindestreg for at zoome ud; eller på de grønne pile for tilstødende kort.


METAR-TAF: